sensor_id;sensor_type;location;lat;lon;timestamp;P1;durP1;ratioP1;P2;durP2;ratioP2
79539;SDS011;68991;52.122;5.406;2023-09-18T00:00:18;4.45;;;3.05;;
79539;SDS011;68991;52.122;5.406;2023-09-18T00:02:47;4.68;;;2.60;;
79539;SDS011;68991;52.122;5.406;2023-09-18T00:05:14;3.78;;;2.92;;
79539;SDS011;68991;52.122;5.406;2023-09-18T00:07:42;3.13;;;2.63;;
79539;SDS011;68991;52.122;5.406;2023-09-18T00:10:10;6.55;;;3.10;;
79539;SDS011;68991;52.122;5.406;2023-09-18T00:12:37;3.97;;;3.20;;
79539;SDS011;68991;52.122;5.406;2023-09-18T00:15:05;5.93;;;2.88;;
79539;SDS011;68991;52.122;5.406;2023-09-18T00:17:35;5.70;;;3.22;;
79539;SDS011;68991;52.122;5.406;2023-09-18T00:20:02;5.45;;;2.90;;
79539;SDS011;68991;52.122;5.406;2023-09-18T00:22:33;5.47;;;2.67;;
79539;SDS011;68991;52.122;5.406;2023-09-18T00:25:00;4.05;;;2.83;;
79539;SDS011;68991;52.122;5.406;2023-09-18T00:27:27;3.63;;;2.70;;
79539;SDS011;68991;52.122;5.406;2023-09-18T00:29:54;3.70;;;2.80;;
79539;SDS011;68991;52.122;5.406;2023-09-18T00:32:21;3.70;;;2.67;;
79539;SDS011;68991;52.122;5.406;2023-09-18T00:34:47;4.38;;;3.05;;
79539;SDS011;68991;52.122;5.406;2023-09-18T00:37:14;4.55;;;2.90;;
79539;SDS011;68991;52.122;5.406;2023-09-18T00:39:41;3.67;;;2.70;;
79539;SDS011;68991;52.122;5.406;2023-09-18T00:42:09;3.72;;;2.90;;
79539;SDS011;68991;52.122;5.406;2023-09-18T00:44:40;4.18;;;2.72;;
79539;SDS011;68991;52.122;5.406;2023-09-18T00:47:07;4.18;;;2.92;;
79539;SDS011;68991;52.122;5.406;2023-09-18T00:49:35;4.15;;;2.83;;
79539;SDS011;68991;52.122;5.406;2023-09-18T00:52:04;3.75;;;2.60;;
79539;SDS011;68991;52.122;5.406;2023-09-18T00:54:33;4.55;;;2.63;;
79539;SDS011;68991;52.122;5.406;2023-09-18T00:57:01;4.57;;;2.72;;
79539;SDS011;68991;52.122;5.406;2023-09-18T00:59:28;4.05;;;2.30;;
79539;SDS011;68991;52.122;5.406;2023-09-18T01:01:55;5.10;;;2.92;;
79539;SDS011;68991;52.122;5.406;2023-09-18T01:04:22;3.85;;;2.78;;
79539;SDS011;68991;52.122;5.406;2023-09-18T01:06:51;3.97;;;2.88;;
79539;SDS011;68991;52.122;5.406;2023-09-18T01:09:18;3.30;;;2.55;;
79539;SDS011;68991;52.122;5.406;2023-09-18T01:11:49;4.35;;;2.40;;
79539;SDS011;68991;52.122;5.406;2023-09-18T01:16:58;3.72;;;2.58;;
79539;SDS011;68991;52.122;5.406;2023-09-18T01:19:38;4.65;;;2.95;;
79539;SDS011;68991;52.122;5.406;2023-09-18T01:22:07;3.40;;;2.58;;
79539;SDS011;68991;52.122;5.406;2023-09-18T01:24:35;3.55;;;2.63;;
79539;SDS011;68991;52.122;5.406;2023-09-18T01:27:03;3.83;;;2.25;;
79539;SDS011;68991;52.122;5.406;2023-09-18T01:29:31;3.72;;;2.50;;
79539;SDS011;68991;52.122;5.406;2023-09-18T01:31:57;3.92;;;2.40;;
79539;SDS011;68991;52.122;5.406;2023-09-18T01:34:32;3.83;;;2.55;;
79539;SDS011;68991;52.122;5.406;2023-09-18T01:37:03;3.78;;;2.63;;
79539;SDS011;68991;52.122;5.406;2023-09-18T01:39:31;3.35;;;2.28;;
79539;SDS011;68991;52.122;5.406;2023-09-18T01:42:01;3.30;;;2.50;;
79539;SDS011;68991;52.122;5.406;2023-09-18T01:47:04;3.30;;;2.72;;
79539;SDS011;68991;52.122;5.406;2023-09-18T01:49:35;3.97;;;2.60;;
79539;SDS011;68991;52.122;5.406;2023-09-18T01:52:03;3.17;;;2.40;;
79539;SDS011;68991;52.122;5.406;2023-09-18T01:54:30;4.75;;;2.38;;
79539;SDS011;68991;52.122;5.406;2023-09-18T01:56:58;3.08;;;2.33;;
79539;SDS011;68991;52.122;5.406;2023-09-18T01:59:24;3.00;;;2.40;;
79539;SDS011;68991;52.122;5.406;2023-09-18T02:01:52;3.35;;;2.28;;
79539;SDS011;68991;52.122;5.406;2023-09-18T02:04:20;2.78;;;2.20;;
79539;SDS011;68991;52.122;5.406;2023-09-18T02:07:07;3.90;;;2.53;;
79539;SDS011;68991;52.122;5.406;2023-09-18T02:09:34;5.57;;;2.40;;
79539;SDS011;68991;52.122;5.406;2023-09-18T02:12:01;3.03;;;2.25;;
79539;SDS011;68991;52.122;5.406;2023-09-18T02:14:27;3.22;;;2.35;;
79539;SDS011;68991;52.122;5.406;2023-09-18T02:16:56;4.10;;;2.60;;
79539;SDS011;68991;52.122;5.406;2023-09-18T02:19:23;3.28;;;2.13;;
79539;SDS011;68991;52.122;5.406;2023-09-18T02:21:49;3.42;;;2.40;;
79539;SDS011;68991;52.122;5.406;2023-09-18T02:24:16;3.97;;;2.60;;
79539;SDS011;68991;52.122;5.406;2023-09-18T02:26:42;3.05;;;2.20;;
79539;SDS011;68991;52.122;5.406;2023-09-18T02:29:09;4.68;;;2.10;;
79539;SDS011;68991;52.122;5.406;2023-09-18T02:31:40;3.03;;;2.17;;
79539;SDS011;68991;52.122;5.406;2023-09-18T02:34:07;3.05;;;2.30;;
79539;SDS011;68991;52.122;5.406;2023-09-18T02:36:35;3.53;;;2.33;;
79539;SDS011;68991;52.122;5.406;2023-09-18T02:39:02;3.63;;;2.22;;
79539;SDS011;68991;52.122;5.406;2023-09-18T02:41:29;3.33;;;2.50;;
79539;SDS011;68991;52.122;5.406;2023-09-18T02:43:55;3.70;;;2.42;;
79539;SDS011;68991;52.122;5.406;2023-09-18T02:46:22;3.17;;;2.20;;
79539;SDS011;68991;52.122;5.406;2023-09-18T02:48:49;4.00;;;2.47;;
79539;SDS011;68991;52.122;5.406;2023-09-18T02:51:16;3.65;;;2.35;;
79539;SDS011;68991;52.122;5.406;2023-09-18T02:53:42;2.97;;;2.30;;
79539;SDS011;68991;52.122;5.406;2023-09-18T02:56:09;2.88;;;2.28;;
79539;SDS011;68991;52.122;5.406;2023-09-18T02:58:36;3.38;;;2.47;;
79539;SDS011;68991;52.122;5.406;2023-09-18T03:01:02;3.97;;;2.13;;
79539;SDS011;68991;52.122;5.406;2023-09-18T03:03:31;3.47;;;2.50;;
79539;SDS011;68991;52.122;5.406;2023-09-18T03:06:02;2.72;;;2.33;;
79539;SDS011;68991;52.122;5.406;2023-09-18T03:08:30;3.58;;;2.30;;
79539;SDS011;68991;52.122;5.406;2023-09-18T03:10:57;3.28;;;2.58;;
79539;SDS011;68991;52.122;5.406;2023-09-18T03:13:25;3.22;;;2.30;;
79539;SDS011;68991;52.122;5.406;2023-09-18T03:15:53;3.70;;;2.42;;
79539;SDS011;68991;52.122;5.406;2023-09-18T03:18:20;3.25;;;2.33;;
79539;SDS011;68991;52.122;5.406;2023-09-18T03:20:46;2.97;;;1.98;;
79539;SDS011;68991;52.122;5.406;2023-09-18T03:23:14;3.30;;;2.30;;
79539;SDS011;68991;52.122;5.406;2023-09-18T03:25:41;4.03;;;2.38;;
79539;SDS011;68991;52.122;5.406;2023-09-18T03:28:16;3.25;;;2.30;;
79539;SDS011;68991;52.122;5.406;2023-09-18T03:30:43;3.45;;;2.30;;
79539;SDS011;68991;52.122;5.406;2023-09-18T03:33:09;3.10;;;2.17;;
79539;SDS011;68991;52.122;5.406;2023-09-18T03:35:45;3.13;;;2.22;;
79539;SDS011;68991;52.122;5.406;2023-09-18T03:38:15;3.25;;;2.20;;
79539;SDS011;68991;52.122;5.406;2023-09-18T03:40:43;3.42;;;2.22;;
79539;SDS011;68991;52.122;5.406;2023-09-18T03:43:10;3.80;;;2.20;;
79539;SDS011;68991;52.122;5.406;2023-09-18T03:45:38;3.50;;;2.40;;
79539;SDS011;68991;52.122;5.406;2023-09-18T03:48:08;4.18;;;2.38;;
79539;SDS011;68991;52.122;5.406;2023-09-18T03:50:36;3.35;;;2.35;;
79539;SDS011;68991;52.122;5.406;2023-09-18T03:53:02;3.88;;;2.50;;
79539;SDS011;68991;52.122;5.406;2023-09-18T03:55:29;3.47;;;2.17;;
79539;SDS011;68991;52.122;5.406;2023-09-18T03:57:56;2.78;;;2.10;;
79539;SDS011;68991;52.122;5.406;2023-09-18T04:00:23;4.07;;;2.50;;
79539;SDS011;68991;52.122;5.406;2023-09-18T04:02:49;6.15;;;2.50;;
79539;SDS011;68991;52.122;5.406;2023-09-18T04:05:16;6.05;;;2.55;;
79539;SDS011;68991;52.122;5.406;2023-09-18T04:07:43;5.63;;;2.50;;
79539;SDS011;68991;52.122;5.406;2023-09-18T04:10:13;5.63;;;2.50;;
79539;SDS011;68991;52.122;5.406;2023-09-18T04:12:50;3.40;;;2.22;;
79539;SDS011;68991;52.122;5.406;2023-09-18T04:15:17;7.53;;;2.63;;
79539;SDS011;68991;52.122;5.406;2023-09-18T04:17:45;4.15;;;2.45;;
79539;SDS011;68991;52.122;5.406;2023-09-18T04:20:12;6.90;;;2.20;;
79539;SDS011;68991;52.122;5.406;2023-09-18T04:22:43;5.13;;;2.42;;
79539;SDS011;68991;52.122;5.406;2023-09-18T04:25:11;3.65;;;2.42;;
79539;SDS011;68991;52.122;5.406;2023-09-18T04:27:38;3.42;;;2.28;;
79539;SDS011;68991;52.122;5.406;2023-09-18T04:30:05;3.20;;;2.30;;
79539;SDS011;68991;52.122;5.406;2023-09-18T04:32:38;5.22;;;2.20;;
79539;SDS011;68991;52.122;5.406;2023-09-18T04:35:05;5.00;;;2.35;;
79539;SDS011;68991;52.122;5.406;2023-09-18T04:37:36;3.78;;;2.60;;
79539;SDS011;68991;52.122;5.406;2023-09-18T04:40:05;3.47;;;2.17;;
79539;SDS011;68991;52.122;5.406;2023-09-18T04:42:37;4.78;;;2.45;;
79539;SDS011;68991;52.122;5.406;2023-09-18T04:45:05;3.88;;;2.38;;
79539;SDS011;68991;52.122;5.406;2023-09-18T04:47:32;3.60;;;2.53;;
79539;SDS011;68991;52.122;5.406;2023-09-18T04:49:58;6.72;;;2.67;;
79539;SDS011;68991;52.122;5.406;2023-09-18T04:52:25;4.22;;;3.00;;
79539;SDS011;68991;52.122;5.406;2023-09-18T04:54:52;6.45;;;2.70;;
79539;SDS011;68991;52.122;5.406;2023-09-18T04:57:20;4.72;;;2.75;;
79539;SDS011;68991;52.122;5.406;2023-09-18T04:59:47;5.05;;;3.00;;
79539;SDS011;68991;52.122;5.406;2023-09-18T05:04:51;4.97;;;2.88;;
79539;SDS011;68991;52.122;5.406;2023-09-18T05:07:18;6.07;;;3.38;;
79539;SDS011;68991;52.122;5.406;2023-09-18T05:09:44;6.47;;;2.97;;
79539;SDS011;68991;52.122;5.406;2023-09-18T05:12:12;6.25;;;2.88;;
79539;SDS011;68991;52.122;5.406;2023-09-18T05:14:40;3.38;;;2.55;;
79539;SDS011;68991;52.122;5.406;2023-09-18T05:17:09;3.20;;;2.30;;
79539;SDS011;68991;52.122;5.406;2023-09-18T05:19:42;4.20;;;3.08;;
79539;SDS011;68991;52.122;5.406;2023-09-18T05:22:09;3.92;;;2.58;;
79539;SDS011;68991;52.122;5.406;2023-09-18T05:24:39;4.88;;;2.60;;
79539;SDS011;68991;52.122;5.406;2023-09-18T05:27:06;5.28;;;2.80;;
79539;SDS011;68991;52.122;5.406;2023-09-18T05:29:33;3.72;;;2.42;;
79539;SDS011;68991;52.122;5.406;2023-09-18T05:32:02;5.55;;;2.72;;
79539;SDS011;68991;52.122;5.406;2023-09-18T05:34:30;3.70;;;2.33;;
79539;SDS011;68991;52.122;5.406;2023-09-18T05:36:58;4.22;;;2.42;;
79539;SDS011;68991;52.122;5.406;2023-09-18T05:39:24;4.05;;;2.33;;
79539;SDS011;68991;52.122;5.406;2023-09-18T05:41:51;4.15;;;2.50;;
79539;SDS011;68991;52.122;5.406;2023-09-18T05:44:17;4.55;;;2.30;;
79539;SDS011;68991;52.122;5.406;2023-09-18T05:46:44;6.05;;;2.83;;
79539;SDS011;68991;52.122;5.406;2023-09-18T05:49:11;4.43;;;2.40;;
79539;SDS011;68991;52.122;5.406;2023-09-18T05:51:38;5.55;;;2.45;;
79539;SDS011;68991;52.122;5.406;2023-09-18T05:54:05;5.38;;;2.10;;
79539;SDS011;68991;52.122;5.406;2023-09-18T05:56:33;3.08;;;2.30;;
79539;SDS011;68991;52.122;5.406;2023-09-18T05:59:00;3.97;;;2.55;;
79539;SDS011;68991;52.122;5.406;2023-09-18T06:01:26;4.95;;;2.60;;
79539;SDS011;68991;52.122;5.406;2023-09-18T06:03:54;4.97;;;2.20;;
79539;SDS011;68991;52.122;5.406;2023-09-18T06:06:20;3.70;;;2.50;;
79539;SDS011;68991;52.122;5.406;2023-09-18T06:08:47;3.45;;;2.10;;
79539;SDS011;68991;52.122;5.406;2023-09-18T06:11:13;3.45;;;2.10;;
79539;SDS011;68991;52.122;5.406;2023-09-18T06:13:40;8.32;;;2.15;;
79539;SDS011;68991;52.122;5.406;2023-09-18T06:16:07;4.57;;;2.40;;
79539;SDS011;68991;52.122;5.406;2023-09-18T06:18:34;3.50;;;2.20;;
79539;SDS011;68991;52.122;5.406;2023-09-18T06:21:04;3.30;;;2.05;;
79539;SDS011;68991;52.122;5.406;2023-09-18T06:23:31;3.45;;;1.95;;
79539;SDS011;68991;52.122;5.406;2023-09-18T06:25:58;3.28;;;2.40;;
79539;SDS011;68991;52.122;5.406;2023-09-18T06:28:25;3.63;;;2.30;;
79539;SDS011;68991;52.122;5.406;2023-09-18T06:30:52;4.57;;;2.22;;
79539;SDS011;68991;52.122;5.406;2023-09-18T06:33:20;3.15;;;2.05;;
79539;SDS011;68991;52.122;5.406;2023-09-18T06:35:47;3.53;;;2.08;;
79539;SDS011;68991;52.122;5.406;2023-09-18T06:38:14;3.42;;;2.05;;
79539;SDS011;68991;52.122;5.406;2023-09-18T06:40:41;2.95;;;2.25;;
79539;SDS011;68991;52.122;5.406;2023-09-18T06:43:08;4.13;;;2.60;;
79539;SDS011;68991;52.122;5.406;2023-09-18T06:45:34;3.13;;;2.17;;
79539;SDS011;68991;52.122;5.406;2023-09-18T06:48:03;3.83;;;2.13;;
79539;SDS011;68991;52.122;5.406;2023-09-18T06:50:30;3.40;;;2.63;;
79539;SDS011;68991;52.122;5.406;2023-09-18T06:52:57;4.63;;;2.28;;
79539;SDS011;68991;52.122;5.406;2023-09-18T06:55:23;3.63;;;2.10;;
79539;SDS011;68991;52.122;5.406;2023-09-18T06:57:50;4.22;;;2.25;;
79539;SDS011;68991;52.122;5.406;2023-09-18T07:00:18;4.50;;;2.20;;
79539;SDS011;68991;52.122;5.406;2023-09-18T07:02:47;3.80;;;2.20;;
79539;SDS011;68991;52.122;5.406;2023-09-18T07:05:16;5.43;;;2.40;;
79539;SDS011;68991;52.122;5.406;2023-09-18T07:07:42;3.17;;;2.05;;
79539;SDS011;68991;52.122;5.406;2023-09-18T07:10:09;3.85;;;2.63;;
79539;SDS011;68991;52.122;5.406;2023-09-18T07:12:35;3.30;;;2.17;;
79539;SDS011;68991;52.122;5.406;2023-09-18T07:15:02;3.75;;;2.38;;
79539;SDS011;68991;52.122;5.406;2023-09-18T07:17:32;3.83;;;2.25;;
79539;SDS011;68991;52.122;5.406;2023-09-18T07:20:00;3.45;;;2.45;;
79539;SDS011;68991;52.122;5.406;2023-09-18T07:22:27;2.92;;;1.98;;
79539;SDS011;68991;52.122;5.406;2023-09-18T07:24:56;3.85;;;2.13;;
79539;SDS011;68991;52.122;5.406;2023-09-18T07:27:23;3.28;;;2.28;;
79539;SDS011;68991;52.122;5.406;2023-09-18T07:29:49;6.13;;;2.40;;
79539;SDS011;68991;52.122;5.406;2023-09-18T07:32:16;3.47;;;2.10;;
79539;SDS011;68991;52.122;5.406;2023-09-18T07:35:02;3.35;;;2.13;;
79539;SDS011;68991;52.122;5.406;2023-09-18T07:37:33;3.15;;;2.30;;
79539;SDS011;68991;52.122;5.406;2023-09-18T07:39:59;2.92;;;2.13;;
79539;SDS011;68991;52.122;5.406;2023-09-18T07:42:26;3.67;;;2.33;;
79539;SDS011;68991;52.122;5.406;2023-09-18T07:44:53;3.15;;;2.13;;
79539;SDS011;68991;52.122;5.406;2023-09-18T07:49:50;3.90;;;1.98;;
79539;SDS011;68991;52.122;5.406;2023-09-18T07:52:17;4.95;;;2.30;;
79539;SDS011;68991;52.122;5.406;2023-09-18T07:54:44;3.63;;;2.17;;
79539;SDS011;68991;52.122;5.406;2023-09-18T07:57:10;4.13;;;2.15;;
79539;SDS011;68991;52.122;5.406;2023-09-18T07:59:37;5.15;;;2.63;;
79539;SDS011;68991;52.122;5.406;2023-09-18T08:02:05;4.57;;;2.13;;
79539;SDS011;68991;52.122;5.406;2023-09-18T08:04:32;3.42;;;2.03;;
79539;SDS011;68991;52.122;5.406;2023-09-18T08:06:59;3.78;;;2.05;;
79539;SDS011;68991;52.122;5.406;2023-09-18T08:09:26;3.95;;;2.25;;
79539;SDS011;68991;52.122;5.406;2023-09-18T08:11:55;4.32;;;2.30;;
79539;SDS011;68991;52.122;5.406;2023-09-18T08:14:22;3.17;;;2.20;;
79539;SDS011;68991;52.122;5.406;2023-09-18T08:16:49;4.72;;;2.28;;
79539;SDS011;68991;52.122;5.406;2023-09-18T08:19:24;3.67;;;2.10;;
79539;SDS011;68991;52.122;5.406;2023-09-18T08:21:53;3.72;;;2.13;;
79539;SDS011;68991;52.122;5.406;2023-09-18T08:24:20;3.70;;;2.30;;
79539;SDS011;68991;52.122;5.406;2023-09-18T08:26:47;2.92;;;1.77;;
79539;SDS011;68991;52.122;5.406;2023-09-18T08:29:14;3.67;;;2.40;;
79539;SDS011;68991;52.122;5.406;2023-09-18T08:31:41;4.75;;;2.33;;
79539;SDS011;68991;52.122;5.406;2023-09-18T08:34:08;4.55;;;1.92;;
79539;SDS011;68991;52.122;5.406;2023-09-18T08:36:35;5.25;;;2.00;;
79539;SDS011;68991;52.122;5.406;2023-09-18T08:39:01;2.78;;;1.80;;
79539;SDS011;68991;52.122;5.406;2023-09-18T08:41:32;2.78;;;2.08;;
79539;SDS011;68991;52.122;5.406;2023-09-18T08:44:00;4.75;;;2.45;;
79539;SDS011;68991;52.122;5.406;2023-09-18T08:46:30;2.67;;;1.90;;
79539;SDS011;68991;52.122;5.406;2023-09-18T08:48:59;3.67;;;2.00;;
79539;SDS011;68991;52.122;5.406;2023-09-18T08:51:26;2.97;;;1.92;;
79539;SDS011;68991;52.122;5.406;2023-09-18T08:53:54;2.72;;;2.13;;
79539;SDS011;68991;52.122;5.406;2023-09-18T08:56:22;3.70;;;1.98;;
79539;SDS011;68991;52.122;5.406;2023-09-18T08:58:49;4.55;;;1.80;;
79539;SDS011;68991;52.122;5.406;2023-09-18T09:01:16;3.55;;;2.10;;
79539;SDS011;68991;52.122;5.406;2023-09-18T09:03:43;2.83;;;1.63;;
79539;SDS011;68991;52.122;5.406;2023-09-18T09:06:11;3.60;;;2.22;;
79539;SDS011;68991;52.122;5.406;2023-09-18T09:08:38;2.65;;;1.83;;
79539;SDS011;68991;52.122;5.406;2023-09-18T09:11:05;3.30;;;1.77;;
79539;SDS011;68991;52.122;5.406;2023-09-18T09:13:32;3.38;;;2.00;;
79539;SDS011;68991;52.122;5.406;2023-09-18T09:16:11;3.38;;;2.10;;
79539;SDS011;68991;52.122;5.406;2023-09-18T09:18:47;4.78;;;2.00;;
79539;SDS011;68991;52.122;5.406;2023-09-18T09:21:14;4.47;;;2.10;;
79539;SDS011;68991;52.122;5.406;2023-09-18T09:23:45;3.33;;;1.80;;
79539;SDS011;68991;52.122;5.406;2023-09-18T09:26:16;3.03;;;1.80;;
79539;SDS011;68991;52.122;5.406;2023-09-18T09:28:44;3.50;;;1.92;;
79539;SDS011;68991;52.122;5.406;2023-09-18T09:31:11;3.13;;;1.85;;
79539;SDS011;68991;52.122;5.406;2023-09-18T09:33:38;4.15;;;1.85;;
79539;SDS011;68991;52.122;5.406;2023-09-18T09:36:06;3.25;;;2.00;;
79539;SDS011;68991;52.122;5.406;2023-09-18T09:38:34;3.47;;;1.98;;
79539;SDS011;68991;52.122;5.406;2023-09-18T09:41:01;8.90;;;1.88;;
79539;SDS011;68991;52.122;5.406;2023-09-18T09:43:29;2.45;;;1.75;;
79539;SDS011;68991;52.122;5.406;2023-09-18T09:45:59;3.17;;;1.77;;
79539;SDS011;68991;52.122;5.406;2023-09-18T09:48:27;3.17;;;1.65;;
79539;SDS011;68991;52.122;5.406;2023-09-18T09:50:57;4.30;;;2.10;;
79539;SDS011;68991;52.122;5.406;2023-09-18T09:53:44;3.40;;;1.27;;
79539;SDS011;68991;52.122;5.406;2023-09-18T09:56:17;3.90;;;1.98;;
79539;SDS011;68991;52.122;5.406;2023-09-18T09:59:01;2.63;;;1.80;;
79539;SDS011;68991;52.122;5.406;2023-09-18T10:01:34;3.30;;;1.80;;
79539;SDS011;68991;52.122;5.406;2023-09-18T10:04:03;3.03;;;1.92;;
79539;SDS011;68991;52.122;5.406;2023-09-18T10:06:35;2.80;;;1.60;;
79539;SDS011;68991;52.122;5.406;2023-09-18T10:09:03;4.28;;;1.90;;
79539;SDS011;68991;52.122;5.406;2023-09-18T10:11:31;2.78;;;1.65;;
79539;SDS011;68991;52.122;5.406;2023-09-18T10:14:04;2.75;;;1.50;;
79539;SDS011;68991;52.122;5.406;2023-09-18T10:16:37;2.95;;;1.83;;
79539;SDS011;68991;52.122;5.406;2023-09-18T10:19:21;3.08;;;1.77;;
79539;SDS011;68991;52.122;5.406;2023-09-18T10:24:35;3.22;;;2.00;;
79539;SDS011;68991;52.122;5.406;2023-09-18T10:27:03;3.20;;;1.70;;
79539;SDS011;68991;52.122;5.406;2023-09-18T10:29:32;2.33;;;1.73;;
79539;SDS011;68991;52.122;5.406;2023-09-18T10:32:04;3.75;;;1.52;;
79539;SDS011;68991;52.122;5.406;2023-09-18T10:34:34;4.10;;;2.00;;
79539;SDS011;68991;52.122;5.406;2023-09-18T10:37:03;2.72;;;2.08;;
79539;SDS011;68991;52.122;5.406;2023-09-18T10:39:39;3.05;;;2.25;;
79539;SDS011;68991;52.122;5.406;2023-09-18T10:42:08;3.22;;;2.25;;
79539;SDS011;68991;52.122;5.406;2023-09-18T10:44:35;2.95;;;2.08;;
79539;SDS011;68991;52.122;5.406;2023-09-18T10:47:03;2.75;;;2.05;;
79539;SDS011;68991;52.122;5.406;2023-09-18T10:49:33;3.05;;;2.10;;
79539;SDS011;68991;52.122;5.406;2023-09-18T10:52:01;4.82;;;2.58;;
79539;SDS011;68991;52.122;5.406;2023-09-18T10:54:30;2.97;;;2.20;;
79539;SDS011;68991;52.122;5.406;2023-09-18T10:56:57;2.78;;;2.03;;
79539;SDS011;68991;52.122;5.406;2023-09-18T10:59:24;2.67;;;2.00;;
79539;SDS011;68991;52.122;5.406;2023-09-18T11:01:54;3.15;;;2.30;;
79539;SDS011;68991;52.122;5.406;2023-09-18T11:04:21;2.50;;;1.92;;
79539;SDS011;68991;52.122;5.406;2023-09-18T11:09:20;3.13;;;2.83;;
79539;SDS011;68991;52.122;5.406;2023-09-18T11:11:56;2.97;;;2.13;;
79539;SDS011;68991;52.122;5.406;2023-09-18T11:14:42;3.10;;;2.20;;
79539;SDS011;68991;52.122;5.406;2023-09-18T11:17:55;3.53;;;2.10;;
79539;SDS011;68991;52.122;5.406;2023-09-18T11:20:24;3.15;;;2.15;;
79539;SDS011;68991;52.122;5.406;2023-09-18T11:25:39;3.30;;;2.60;;
79539;SDS011;68991;52.122;5.406;2023-09-18T11:28:15;4.80;;;2.63;;
79539;SDS011;68991;52.122;5.406;2023-09-18T11:30:49;4.03;;;2.30;;
79539;SDS011;68991;52.122;5.406;2023-09-18T11:33:34;3.85;;;2.33;;
79539;SDS011;68991;52.122;5.406;2023-09-18T11:36:11;3.75;;;2.55;;
79539;SDS011;68991;52.122;5.406;2023-09-18T11:39:02;3.30;;;2.20;;
79539;SDS011;68991;52.122;5.406;2023-09-18T11:41:31;2.47;;;2.15;;
79539;SDS011;68991;52.122;5.406;2023-09-18T11:46:33;2.70;;;2.50;;
79539;SDS011;68991;52.122;5.406;2023-09-18T11:49:00;3.08;;;2.30;;
79539;SDS011;68991;52.122;5.406;2023-09-18T11:51:31;4.32;;;2.35;;
79539;SDS011;68991;52.122;5.406;2023-09-18T11:53:58;2.38;;;2.05;;
79539;SDS011;68991;52.122;5.406;2023-09-18T11:56:27;5.10;;;2.30;;
79539;SDS011;68991;52.122;5.406;2023-09-18T11:58:53;3.47;;;2.33;;
79539;SDS011;68991;52.122;5.406;2023-09-18T12:01:21;2.83;;;2.28;;
79539;SDS011;68991;52.122;5.406;2023-09-18T12:04:00;4.78;;;2.60;;
79539;SDS011;68991;52.122;5.406;2023-09-18T12:06:27;2.85;;;2.40;;
79539;SDS011;68991;52.122;5.406;2023-09-18T12:08:54;3.42;;;2.58;;
79539;SDS011;68991;52.122;5.406;2023-09-18T12:11:21;3.80;;;2.40;;
79539;SDS011;68991;52.122;5.406;2023-09-18T12:13:51;3.10;;;2.78;;
79539;SDS011;68991;52.122;5.406;2023-09-18T12:16:18;4.28;;;2.63;;
79539;SDS011;68991;52.122;5.406;2023-09-18T12:18:48;4.88;;;2.33;;
79539;SDS011;68991;52.122;5.406;2023-09-18T12:23:45;3.88;;;2.50;;
79539;SDS011;68991;52.122;5.406;2023-09-18T12:26:13;3.22;;;2.53;;
79539;SDS011;68991;52.122;5.406;2023-09-18T12:28:40;2.30;;;2.00;;
79539;SDS011;68991;52.122;5.406;2023-09-18T12:31:14;3.10;;;2.42;;
79539;SDS011;68991;52.122;5.406;2023-09-18T12:33:43;2.67;;;2.25;;
79539;SDS011;68991;52.122;5.406;2023-09-18T12:36:10;4.22;;;2.33;;
79539;SDS011;68991;52.122;5.406;2023-09-18T12:38:37;4.07;;;2.38;;
79539;SDS011;68991;52.122;5.406;2023-09-18T12:41:04;3.58;;;2.25;;
79539;SDS011;68991;52.122;5.406;2023-09-18T12:43:38;3.08;;;2.47;;
79539;SDS011;68991;52.122;5.406;2023-09-18T12:46:07;5.10;;;2.50;;
79539;SDS011;68991;52.122;5.406;2023-09-18T12:48:38;3.40;;;2.40;;
79539;SDS011;68991;52.122;5.406;2023-09-18T12:51:11;4.60;;;2.72;;
79539;SDS011;68991;52.122;5.406;2023-09-18T12:53:38;3.40;;;2.53;;
79539;SDS011;68991;52.122;5.406;2023-09-18T12:56:05;4.75;;;2.70;;
79539;SDS011;68991;52.122;5.406;2023-09-18T12:58:36;3.97;;;2.33;;
79539;SDS011;68991;52.122;5.406;2023-09-18T13:01:22;3.00;;;2.33;;
79539;SDS011;68991;52.122;5.406;2023-09-18T13:03:49;3.13;;;2.50;;
79539;SDS011;68991;52.122;5.406;2023-09-18T13:06:16;3.35;;;2.40;;
79539;SDS011;68991;52.122;5.406;2023-09-18T13:08:44;4.53;;;2.33;;
79539;SDS011;68991;52.122;5.406;2023-09-18T13:11:12;3.53;;;2.28;;
79539;SDS011;68991;52.122;5.406;2023-09-18T13:13:40;2.80;;;2.28;;
79539;SDS011;68991;52.122;5.406;2023-09-18T13:16:07;3.33;;;2.20;;
79539;SDS011;68991;52.122;5.406;2023-09-18T13:18:38;3.72;;;2.28;;
79539;SDS011;68991;52.122;5.406;2023-09-18T13:21:11;3.40;;;2.15;;
79539;SDS011;68991;52.122;5.406;2023-09-18T13:23:40;3.53;;;2.17;;
79539;SDS011;68991;52.122;5.406;2023-09-18T13:26:07;2.75;;;2.33;;
79539;SDS011;68991;52.122;5.406;2023-09-18T13:28:34;3.47;;;2.30;;
79539;SDS011;68991;52.122;5.406;2023-09-18T13:31:02;2.72;;;2.35;;
79539;SDS011;68991;52.122;5.406;2023-09-18T13:33:33;3.15;;;2.20;;
79539;SDS011;68991;52.122;5.406;2023-09-18T13:36:05;3.13;;;2.50;;
79539;SDS011;68991;52.122;5.406;2023-09-18T13:38:32;3.03;;;2.45;;
79539;SDS011;68991;52.122;5.406;2023-09-18T13:40:59;3.40;;;2.25;;
79539;SDS011;68991;52.122;5.406;2023-09-18T13:43:26;2.63;;;2.25;;
79539;SDS011;68991;52.122;5.406;2023-09-18T13:45:53;2.92;;;2.40;;
79539;SDS011;68991;52.122;5.406;2023-09-18T13:48:22;3.88;;;2.40;;
79539;SDS011;68991;52.122;5.406;2023-09-18T13:50:49;3.40;;;2.25;;
79539;SDS011;68991;52.122;5.406;2023-09-18T13:53:17;3.17;;;2.33;;
79539;SDS011;68991;52.122;5.406;2023-09-18T13:55:44;4.18;;;2.33;;
79539;SDS011;68991;52.122;5.406;2023-09-18T13:58:11;3.60;;;2.00;;
79539;SDS011;68991;52.122;5.406;2023-09-18T14:00:37;2.58;;;2.10;;
79539;SDS011;68991;52.122;5.406;2023-09-18T14:03:04;3.22;;;2.30;;
79539;SDS011;68991;52.122;5.406;2023-09-18T14:05:30;3.15;;;2.10;;
79539;SDS011;68991;52.122;5.406;2023-09-18T14:08:00;5.68;;;2.22;;
79539;SDS011;68991;52.122;5.406;2023-09-18T14:10:27;2.50;;;2.08;;
79539;SDS011;68991;52.122;5.406;2023-09-18T14:12:53;4.32;;;2.20;;
79539;SDS011;68991;52.122;5.406;2023-09-18T14:15:20;4.07;;;2.03;;
79539;SDS011;68991;52.122;5.406;2023-09-18T14:17:47;3.47;;;2.33;;
79539;SDS011;68991;52.122;5.406;2023-09-18T14:20:14;3.33;;;2.35;;
79539;SDS011;68991;52.122;5.406;2023-09-18T14:22:44;3.78;;;2.22;;
79539;SDS011;68991;52.122;5.406;2023-09-18T14:25:12;4.22;;;2.42;;
79539;SDS011;68991;52.122;5.406;2023-09-18T14:27:39;2.72;;;2.30;;
79539;SDS011;68991;52.122;5.406;2023-09-18T14:30:05;2.97;;;2.00;;
79539;SDS011;68991;52.122;5.406;2023-09-18T14:32:34;3.17;;;2.08;;
79539;SDS011;68991;52.122;5.406;2023-09-18T14:35:05;2.60;;;2.20;;
79539;SDS011;68991;52.122;5.406;2023-09-18T14:37:35;2.60;;;1.92;;
79539;SDS011;68991;52.122;5.406;2023-09-18T14:40:02;4.18;;;2.00;;
79539;SDS011;68991;52.122;5.406;2023-09-18T14:42:30;4.38;;;1.92;;
79539;SDS011;68991;52.122;5.406;2023-09-18T14:44:56;3.30;;;2.20;;
79539;SDS011;68991;52.122;5.406;2023-09-18T14:47:23;2.78;;;2.00;;
79539;SDS011;68991;52.122;5.406;2023-09-18T14:49:50;3.53;;;1.77;;
79539;SDS011;68991;52.122;5.406;2023-09-18T14:52:17;2.97;;;2.00;;
79539;SDS011;68991;52.122;5.406;2023-09-18T14:54:45;2.33;;;1.92;;
79539;SDS011;68991;52.122;5.406;2023-09-18T14:57:11;3.92;;;2.13;;
79539;SDS011;68991;52.122;5.406;2023-09-18T14:59:38;3.00;;;2.05;;
79539;SDS011;68991;52.122;5.406;2023-09-18T15:02:08;4.05;;;2.30;;
79539;SDS011;68991;52.122;5.406;2023-09-18T15:04:34;4.07;;;2.10;;
79539;SDS011;68991;52.122;5.406;2023-09-18T15:07:01;3.28;;;2.03;;
79539;SDS011;68991;52.122;5.406;2023-09-18T15:09:28;5.00;;;2.05;;
79539;SDS011;68991;52.122;5.406;2023-09-18T15:11:54;3.05;;;2.03;;
79539;SDS011;68991;52.122;5.406;2023-09-18T15:14:21;2.55;;;1.95;;
79539;SDS011;68991;52.122;5.406;2023-09-18T15:16:47;3.30;;;1.70;;
79539;SDS011;68991;52.122;5.406;2023-09-18T15:19:14;4.30;;;2.25;;